sensor_id;sensor_type;location;lat;lon;timestamp;pressure;altitude;pressure_sealevel;temperature;humidity
49585;BME280;35491;49.142;9.210;2022-12-10T00:00:46;98743.63;;;2.47;71.52
49585;BME280;35491;49.142;9.210;2022-12-10T00:01:49;98745.31;;;2.48;71.47
49585;BME280;35491;49.142;9.210;2022-12-10T00:02:53;98739.44;;;2.44;71.39
49585;BME280;35491;49.142;9.210;2022-12-10T00:03:57;98743.38;;;2.50;71.36
49585;BME280;35491;49.142;9.210;2022-12-10T00:05:01;98740.03;;;2.48;71.50
49585;BME280;35491;49.142;9.210;2022-12-10T00:06:04;98744.19;;;2.50;71.29
49585;BME280;35491;49.142;9.210;2022-12-10T00:07:08;98741.56;;;2.50;71.29
49585;BME280;35491;49.142;9.210;2022-12-10T00:08:10;98744.53;;;2.57;71.47
49585;BME280;35491;49.142;9.210;2022-12-10T00:09:17;98742.41;;;2.51;71.29
49585;BME280;35491;49.142;9.210;2022-12-10T00:10:21;98743.53;;;2.48;71.21
49585;BME280;35491;49.142;9.210;2022-12-10T00:11:26;98731.06;;;2.39;71.35
49585;BME280;35491;49.142;9.210;2022-12-10T00:12:28;98744.56;;;2.46;71.40
49585;BME280;35491;49.142;9.210;2022-12-10T00:13:34;98744.19;;;2.50;71.14
49585;BME280;35491;49.142;9.210;2022-12-10T00:14:36;98740.97;;;2.47;71.17
49585;BME280;35491;49.142;9.210;2022-12-10T00:15:40;98739.06;;;2.49;71.09
49585;BME280;35491;49.142;9.210;2022-12-10T00:16:42;98738.09;;;2.50;71.21
49585;BME280;35491;49.142;9.210;2022-12-10T00:17:46;98748.16;;;2.56;71.24
49585;BME280;35491;49.142;9.210;2022-12-10T00:18:48;98748.41;;;2.53;71.13
49585;BME280;35491;49.142;9.210;2022-12-10T00:19:52;98743.13;;;2.53;70.85
49585;BME280;35491;49.142;9.210;2022-12-10T00:20:54;98738.81;;;2.52;71.08
49585;BME280;35491;49.142;9.210;2022-12-10T00:21:58;98739.78;;;2.51;71.00
49585;BME280;35491;49.142;9.210;2022-12-10T00:23:03;98743.81;;;2.55;71.11
49585;BME280;35491;49.142;9.210;2022-12-10T00:24:05;98739.66;;;2.53;70.96
49585;BME280;35491;49.142;9.210;2022-12-10T00:25:09;98740.28;;;2.45;71.10
49585;BME280;35491;49.142;9.210;2022-12-10T00:26:16;98744.34;;;2.49;70.92
49585;BME280;35491;49.142;9.210;2022-12-10T00:27:20;98742.56;;;2.49;70.93
49585;BME280;35491;49.142;9.210;2022-12-10T00:28:22;98743.41;;;2.39;71.23
49585;BME280;35491;49.142;9.210;2022-12-10T00:29:26;98745.81;;;2.42;71.37
49585;BME280;35491;49.142;9.210;2022-12-10T00:30:30;98743.91;;;2.44;71.36
49585;BME280;35491;49.142;9.210;2022-12-10T00:31:35;98746.78;;;2.41;71.31
49585;BME280;35491;49.142;9.210;2022-12-10T00:32:40;98754.91;;;2.38;71.32
49585;BME280;35491;49.142;9.210;2022-12-10T00:33:42;98754.09;;;2.37;71.54
49585;BME280;35491;49.142;9.210;2022-12-10T00:34:46;98744.25;;;2.39;71.31
49585;BME280;35491;49.142;9.210;2022-12-10T00:35:47;98742.22;;;2.43;71.35
49585;BME280;35491;49.142;9.210;2022-12-10T00:36:51;98744.25;;;2.39;71.39
49585;BME280;35491;49.142;9.210;2022-12-10T00:37:53;98751.31;;;2.39;71.25
49585;BME280;35491;49.142;9.210;2022-12-10T00:38:57;98752.28;;;2.38;71.35
49585;BME280;35491;49.142;9.210;2022-12-10T00:39:59;98746.41;;;2.45;71.50
49585;BME280;35491;49.142;9.210;2022-12-10T00:41:03;98747.69;;;2.51;71.12
49585;BME280;35491;49.142;9.210;2022-12-10T00:42:08;98749.97;;;2.56;70.83
49585;BME280;35491;49.142;9.210;2022-12-10T00:43:12;98746.22;;;2.58;70.93
49585;BME280;35491;49.142;9.210;2022-12-10T00:44:14;98746.47;;;2.55;71.06
49585;BME280;35491;49.142;9.210;2022-12-10T00:45:19;98745.28;;;2.59;70.85
49585;BME280;35491;49.142;9.210;2022-12-10T00:46:21;98750.03;;;2.65;70.68
49585;BME280;35491;49.142;9.210;2022-12-10T00:47:25;98746.31;;;2.68;70.90
49585;BME280;35491;49.142;9.210;2022-12-10T00:48:29;98745.47;;;2.68;70.96
49585;BME280;35491;49.142;9.210;2022-12-10T00:49:31;98750.66;;;2.69;70.81
49585;BME280;35491;49.142;9.210;2022-12-10T00:50:36;98748.69;;;2.71;70.93
49585;BME280;35491;49.142;9.210;2022-12-10T00:51:38;98754.56;;;2.75;70.66
49585;BME280;35491;49.142;9.210;2022-12-10T00:52:42;98756.94;;;2.78;70.85
49585;BME280;35491;49.142;9.210;2022-12-10T00:53:45;98754.44;;;2.76;70.73
49585;BME280;35491;49.142;9.210;2022-12-10T00:54:49;98749.28;;;2.75;70.66
49585;BME280;35491;49.142;9.210;2022-12-10T00:55:52;98759.97;;;2.73;70.65
49585;BME280;35491;49.142;9.210;2022-12-10T00:56:56;98750.25;;;2.74;70.81
49585;BME280;35491;49.142;9.210;2022-12-10T00:58:00;98751.03;;;2.64;70.65
49585;BME280;35491;49.142;9.210;2022-12-10T00:59:04;98760.28;;;2.59;70.81
49585;BME280;35491;49.142;9.210;2022-12-10T01:00:07;98755.63;;;2.51;70.82
49585;BME280;35491;49.142;9.210;2022-12-10T01:01:16;98758.00;;;2.54;70.83
49585;BME280;35491;49.142;9.210;2022-12-10T01:02:18;98759.44;;;2.47;71.17
49585;BME280;35491;49.142;9.210;2022-12-10T01:03:23;98768.31;;;2.46;71.18
49585;BME280;35491;49.142;9.210;2022-12-10T01:04:25;98764.63;;;2.48;70.92
49585;BME280;35491;49.142;9.210;2022-12-10T01:05:29;98763.03;;;2.46;71.22
49585;BME280;35491;49.142;9.210;2022-12-10T01:06:32;98760.75;;;2.53;70.87
49585;BME280;35491;49.142;9.210;2022-12-10T01:07:36;98761.34;;;2.56;70.65
49585;BME280;35491;49.142;9.210;2022-12-10T01:08:38;98760.16;;;2.49;70.99
49585;BME280;35491;49.142;9.210;2022-12-10T01:09:42;98759.97;;;2.41;71.04
49585;BME280;35491;49.142;9.210;2022-12-10T01:10:52;98758.50;;;2.37;70.91
49585;BME280;35491;49.142;9.210;2022-12-10T01:11:55;98765.47;;;2.38;71.18
49585;BME280;35491;49.142;9.210;2022-12-10T01:13:02;98765.38;;;2.39;70.97
49585;BME280;35491;49.142;9.210;2022-12-10T01:14:04;98759.59;;;2.34;71.24
49585;BME280;35491;49.142;9.210;2022-12-10T01:15:09;98765.97;;;2.31;71.26
49585;BME280;35491;49.142;9.210;2022-12-10T01:16:12;98761.78;;;2.29;71.42
49585;BME280;35491;49.142;9.210;2022-12-10T01:17:17;98769.19;;;2.35;71.46
49585;BME280;35491;49.142;9.210;2022-12-10T01:18:22;98769.56;;;2.30;71.48
49585;BME280;35491;49.142;9.210;2022-12-10T01:19:24;98778.44;;;2.41;71.29
49585;BME280;35491;49.142;9.210;2022-12-10T01:20:28;98776.97;;;2.48;71.18
49585;BME280;35491;49.142;9.210;2022-12-10T01:21:30;98779.16;;;2.43;71.20
49585;BME280;35491;49.142;9.210;2022-12-10T01:22:34;98779.25;;;2.41;71.06
49585;BME280;35491;49.142;9.210;2022-12-10T01:23:37;98776.72;;;2.51;71.13
49585;BME280;35491;49.142;9.210;2022-12-10T01:24:42;98773.34;;;2.49;70.72
49585;BME280;35491;49.142;9.210;2022-12-10T01:25:43;98776.25;;;2.46;71.13
49585;BME280;35491;49.142;9.210;2022-12-10T01:26:48;98782.22;;;2.48;71.02
49585;BME280;35491;49.142;9.210;2022-12-10T01:27:52;98775.03;;;2.50;70.79
49585;BME280;35491;49.142;9.210;2022-12-10T01:28:56;98779.59;;;2.48;70.80
49585;BME280;35491;49.142;9.210;2022-12-10T01:30:01;98786.19;;;2.54;70.91
49585;BME280;35491;49.142;9.210;2022-12-10T01:31:05;98783.88;;;2.60;71.00
49585;BME280;35491;49.142;9.210;2022-12-10T01:32:09;98781.13;;;2.62;70.80
49585;BME280;35491;49.142;9.210;2022-12-10T01:33:11;98782.69;;;2.64;70.59
49585;BME280;35491;49.142;9.210;2022-12-10T01:34:15;98786.00;;;2.67;70.54
49585;BME280;35491;49.142;9.210;2022-12-10T01:35:16;98777.13;;;2.68;70.48
49585;BME280;35491;49.142;9.210;2022-12-10T01:36:23;98784.72;;;2.61;70.52
49585;BME280;35491;49.142;9.210;2022-12-10T01:37:25;98786.66;;;2.59;70.66
49585;BME280;35491;49.142;9.210;2022-12-10T01:38:29;98784.72;;;2.61;70.74
49585;BME280;35491;49.142;9.210;2022-12-10T01:39:30;98787.50;;;2.59;70.40
49585;BME280;35491;49.142;9.210;2022-12-10T01:40:37;98789.31;;;2.59;70.81
49585;BME280;35491;49.142;9.210;2022-12-10T01:41:41;98795.16;;;2.62;70.59
49585;BME280;35491;49.142;9.210;2022-12-10T01:42:45;98791.81;;;2.60;70.54
49585;BME280;35491;49.142;9.210;2022-12-10T01:43:50;98793.47;;;2.61;70.58
49585;BME280;35491;49.142;9.210;2022-12-10T01:45:07;98790.38;;;2.56;70.76
49585;BME280;35491;49.142;9.210;2022-12-10T01:46:09;98785.94;;;2.57;70.71
49585;BME280;35491;49.142;9.210;2022-12-10T01:47:13;98794.31;;;2.62;70.79
49585;BME280;35491;49.142;9.210;2022-12-10T01:48:15;98789.63;;;2.65;70.68
49585;BME280;35491;49.142;9.210;2022-12-10T01:49:21;98800.31;;;2.64;70.61
49585;BME280;35491;49.142;9.210;2022-12-10T01:50:23;98791.28;;;2.67;70.53
49585;BME280;35491;49.142;9.210;2022-12-10T01:51:30;98793.47;;;2.61;70.65
49585;BME280;35491;49.142;9.210;2022-12-10T01:52:32;98793.81;;;2.68;70.57
49585;BME280;35491;49.142;9.210;2022-12-10T01:53:36;98799.94;;;2.69;70.35
49585;BME280;35491;49.142;9.210;2022-12-10T01:54:40;98799.00;;;2.58;70.27
49585;BME280;35491;49.142;9.210;2022-12-10T01:55:47;98806.69;;;2.50;70.85
49585;BME280;35491;49.142;9.210;2022-12-10T01:56:57;98807.88;;;2.57;70.55
49585;BME280;35491;49.142;9.210;2022-12-10T01:58:02;98809.31;;;2.61;70.44
49585;BME280;35491;49.142;9.210;2022-12-10T01:59:04;98803.81;;;2.64;70.46
49585;BME280;35491;49.142;9.210;2022-12-10T02:00:12;98806.88;;;2.70;70.43
49585;BME280;35491;49.142;9.210;2022-12-10T02:01:18;98807.41;;;2.63;70.48
49585;BME280;35491;49.142;9.210;2022-12-10T02:02:33;98810.13;;;2.62;70.79
49585;BME280;35491;49.142;9.210;2022-12-10T02:03:43;98807.13;;;2.67;70.35
49585;BME280;35491;49.142;9.210;2022-12-10T02:05:00;98804.03;;;2.61;70.59
49585;BME280;35491;49.142;9.210;2022-12-10T02:06:10;98807.25;;;2.65;70.48
49585;BME280;35491;49.142;9.210;2022-12-10T02:07:22;98807.13;;;2.67;70.33
49585;BME280;35491;49.142;9.210;2022-12-10T02:08:27;98807.88;;;2.57;70.40
49585;BME280;35491;49.142;9.210;2022-12-10T02:09:40;98807.66;;;2.49;70.72
49585;BME280;35491;49.142;9.210;2022-12-10T02:10:53;98804.19;;;2.48;70.54
49585;BME280;35491;49.142;9.210;2022-12-10T02:12:09;98811.75;;;2.42;70.80
49585;BME280;35491;49.142;9.210;2022-12-10T02:13:18;98806.97;;;2.36;71.24
49585;BME280;35491;49.142;9.210;2022-12-10T02:14:23;98820.63;;;2.29;71.32
49585;BME280;35491;49.142;9.210;2022-12-10T02:15:34;98811.41;;;2.35;71.19
49585;BME280;35491;49.142;9.210;2022-12-10T02:16:44;98810.44;;;2.36;71.26
49585;BME280;35491;49.142;9.210;2022-12-10T02:17:52;98811.03;;;2.28;71.41
49585;BME280;35491;49.142;9.210;2022-12-10T02:19:04;98807.47;;;2.18;71.59
49585;BME280;35491;49.142;9.210;2022-12-10T02:20:15;98813.38;;;2.10;72.16
49585;BME280;35491;49.142;9.210;2022-12-10T02:21:22;98804.22;;;2.14;72.05
49585;BME280;35491;49.142;9.210;2022-12-10T02:22:31;98807.00;;;2.13;71.96
49585;BME280;35491;49.142;9.210;2022-12-10T02:23:35;98809.19;;;2.08;72.44
49585;BME280;35491;49.142;9.210;2022-12-10T02:24:41;98808.69;;;2.02;72.51
49585;BME280;35491;49.142;9.210;2022-12-10T02:25:49;98812.53;;;1.98;72.84
49585;BME280;35491;49.142;9.210;2022-12-10T02:27:00;98808.91;;;1.99;72.53
49585;BME280;35491;49.142;9.210;2022-12-10T02:28:09;98809.53;;;2.03;72.77
49585;BME280;35491;49.142;9.210;2022-12-10T02:29:20;98810.59;;;2.12;72.55
49585;BME280;35491;49.142;9.210;2022-12-10T02:30:24;98805.56;;;2.09;72.31
49585;BME280;35491;49.142;9.210;2022-12-10T02:31:30;98807.50;;;2.07;72.39
49585;BME280;35491;49.142;9.210;2022-12-10T02:32:36;98805.56;;;2.09;72.42
49585;BME280;35491;49.142;9.210;2022-12-10T02:33:44;98801.28;;;2.08;72.30
49585;BME280;35491;49.142;9.210;2022-12-10T02:34:50;98807.22;;;2.10;72.15
49585;BME280;35491;49.142;9.210;2022-12-10T02:35:57;98799.91;;;2.13;72.20
49585;BME280;35491;49.142;9.210;2022-12-10T02:37:03;98799.44;;;2.20;71.84
49585;BME280;35491;49.142;9.210;2022-12-10T02:38:11;98798.50;;;2.21;71.80
49585;BME280;35491;49.142;9.210;2022-12-10T02:39:17;98797.28;;;2.25;71.83
49585;BME280;35491;49.142;9.210;2022-12-10T02:40:27;98792.59;;;2.28;71.63
49585;BME280;35491;49.142;9.210;2022-12-10T02:41:33;98789.25;;;2.26;71.63
49585;BME280;35491;49.142;9.210;2022-12-10T02:42:39;98788.41;;;2.26;71.76
49585;BME280;35491;49.142;9.210;2022-12-10T02:43:43;98795.50;;;2.25;71.98
49585;BME280;35491;49.142;9.210;2022-12-10T02:44:52;98790.31;;;2.24;71.93
49585;BME280;35491;49.142;9.210;2022-12-10T02:45:56;98793.91;;;2.23;71.87
49585;BME280;35491;49.142;9.210;2022-12-10T02:47:01;98797.78;;;2.18;72.14
49585;BME280;35491;49.142;9.210;2022-12-10T02:48:04;98796.81;;;2.20;72.48
49585;BME280;35491;49.142;9.210;2022-12-10T19:08:00;99330.94;;;1.74;67.42
49585;BME280;35491;49.142;9.210;2022-12-10T19:09:08;99332.44;;;1.78;67.04
49585;BME280;35491;49.142;9.210;2022-12-10T19:10:17;99327.78;;;1.68;67.14
49585;BME280;35491;49.142;9.210;2022-12-10T19:11:23;99335.91;;;1.65;67.12
49585;BME280;35491;49.142;9.210;2022-12-10T19:12:27;99332.81;;;1.84;66.64
49585;BME280;35491;49.142;9.210;2022-12-10T19:13:29;99323.56;;;1.92;66.40
49585;BME280;35491;49.142;9.210;2022-12-10T19:14:33;99326.09;;;1.80;66.61
49585;BME280;35491;49.142;9.210;2022-12-10T19:15:41;99337.03;;;1.61;67.29
49585;BME280;35491;49.142;9.210;2022-12-10T19:16:48;99338.84;;;1.61;67.36
49585;BME280;35491;49.142;9.210;2022-12-10T19:17:50;99336.22;;;1.48;67.73
49585;BME280;35491;49.142;9.210;2022-12-10T19:18:54;99334.25;;;1.24;68.46
49585;BME280;35491;49.142;9.210;2022-12-10T19:20:02;99331.94;;;1.19;69.12
49585;BME280;35491;49.142;9.210;2022-12-10T19:21:06;99331.72;;;1.09;69.23
49585;BME280;35491;49.142;9.210;2022-12-10T19:22:10;99331.59;;;1.11;69.16
49585;BME280;35491;49.142;9.210;2022-12-10T19:23:17;99335.00;;;1.13;69.34
49585;BME280;35491;49.142;9.210;2022-12-10T19:24:19;99333.19;;;1.14;69.28
49585;BME280;35491;49.142;9.210;2022-12-10T19:25:23;99336.78;;;1.13;69.35
49585;BME280;35491;49.142;9.210;2022-12-10T19:26:27;99332.34;;;1.13;69.46
49585;BME280;35491;49.142;9.210;2022-12-10T19:27:33;99336.97;;;1.09;69.59
49585;BME280;35491;49.142;9.210;2022-12-10T19:28:38;99336.97;;;1.09;69.68
49585;BME280;35491;49.142;9.210;2022-12-10T19:29:43;99344.94;;;0.95;70.32
49585;BME280;35491;49.142;9.210;2022-12-10T19:30:47;99338.84;;;0.95;70.43
49585;BME280;35491;49.142;9.210;2022-12-10T19:31:52;99343.91;;;0.98;70.14
49585;BME280;35491;49.142;9.210;2022-12-10T19:32:54;99337.78;;;0.97;70.18
49585;BME280;35491;49.142;9.210;2022-12-10T19:33:59;99336.13;;;1.09;69.92
49585;BME280;35491;49.142;9.210;2022-12-10T19:35:00;99335.00;;;1.26;69.43
49585;BME280;35491;49.142;9.210;2022-12-10T19:36:10;99340.72;;;1.33;69.06
49585;BME280;35491;49.142;9.210;2022-12-10T19:37:18;99340.16;;;1.15;69.57
49585;BME280;35491;49.142;9.210;2022-12-10T19:39:29;99343.97;;;1.23;69.55
49585;BME280;35491;49.142;9.210;2022-12-10T19:40:36;99346.72;;;1.35;69.24
49585;BME280;35491;49.142;9.210;2022-12-10T19:41:40;99344.16;;;1.20;69.39
49585;BME280;35491;49.142;9.210;2022-12-10T19:42:43;99345.97;;;1.20;69.57
49585;BME280;35491;49.142;9.210;2022-12-10T19:43:47;99342.78;;;1.15;69.71
49585;BME280;35491;49.142;9.210;2022-12-10T19:44:51;99345.38;;;1.02;70.22
49585;BME280;35491;49.142;9.210;2022-12-10T19:45:53;99342.00;;;1.00;70.42
49585;BME280;35491;49.142;9.210;2022-12-10T19:46:59;99346.19;;;0.89;71.08
49585;BME280;35491;49.142;9.210;2022-12-10T19:48:09;99344.22;;;0.93;71.10
49585;BME280;35491;49.142;9.210;2022-12-10T19:49:17;99339.88;;;0.92;71.04
49585;BME280;35491;49.142;9.210;2022-12-10T19:50:24;99336.09;;;0.96;70.70
49585;BME280;35491;49.142;9.210;2022-12-10T19:51:25;99337.72;;;0.99;70.58
49585;BME280;35491;49.142;9.210;2022-12-10T19:52:30;99340.41;;;0.97;70.82
49585;BME280;35491;49.142;9.210;2022-12-10T19:53:32;99336.69;;;0.87;71.06
49585;BME280;35491;49.142;9.210;2022-12-10T19:54:38;99340.28;;;0.86;71.45
49585;BME280;35491;49.142;9.210;2022-12-10T19:55:43;99331.34;;;0.88;71.36
49585;BME280;35491;49.142;9.210;2022-12-10T19:56:47;99332.19;;;0.89;71.44
49585;BME280;35491;49.142;9.210;2022-12-10T19:57:51;99334.94;;;0.87;71.61
49585;BME280;35491;49.142;9.210;2022-12-10T19:58:58;99331.44;;;0.87;71.64
49585;BME280;35491;49.142;9.210;2022-12-10T19:59:59;99333.75;;;0.91;71.59
49585;BME280;35491;49.142;9.210;2022-12-10T20:01:04;99330.00;;;0.96;71.09
49585;BME280;35491;49.142;9.210;2022-12-10T20:02:08;99339.38;;;1.00;71.19
49585;BME280;35491;49.142;9.210;2022-12-10T20:03:13;99337.78;;;0.97;71.14
49585;BME280;35491;49.142;9.210;2022-12-10T20:04:18;99336.22;;;0.95;71.24
49585;BME280;35491;49.142;9.210;2022-12-10T20:05:22;99333.75;;;0.91;71.45
49585;BME280;35491;49.142;9.210;2022-12-10T20:06:28;99336.50;;;0.90;71.32
49585;BME280;35491;49.142;9.210;2022-12-10T20:07:31;99332.94;;;0.91;71.45
49585;BME280;35491;49.142;9.210;2022-12-10T20:08:36;99332.75;;;0.94;71.26
49585;BME280;35491;49.142;9.210;2022-12-10T20:09:40;99336.31;;;0.93;71.40
49585;BME280;35491;49.142;9.210;2022-12-10T20:10:45;99329.75;;;0.86;71.53
49585;BME280;35491;49.142;9.210;2022-12-10T20:11:51;99330.91;;;0.82;71.77
49585;BME280;35491;49.142;9.210;2022-12-10T20:12:53;99333.44;;;0.83;72.00
49585;BME280;35491;49.142;9.210;2022-12-10T20:13:57;99329.09;;;0.82;71.75
49585;BME280;35491;49.142;9.210;2022-12-10T20:14:59;99332.19;;;0.89;71.85
49585;BME280;35491;49.142;9.210;2022-12-10T20:16:03;99334.50;;;0.93;71.82
49585;BME280;35491;49.142;9.210;2022-12-10T20:17:08;99338.81;;;0.82;71.94
49585;BME280;35491;49.142;9.210;2022-12-10T20:18:16;99332.91;;;0.78;72.32
49585;BME280;35491;49.142;9.210;2022-12-10T20:19:22;99336.91;;;0.84;71.97
49585;BME280;35491;49.142;9.210;2022-12-10T20:20:28;99329.75;;;0.86;71.78
49585;BME280;35491;49.142;9.210;2022-12-10T20:21:29;99331.00;;;0.80;72.04
49585;BME280;35491;49.142;9.210;2022-12-10T20:22:34;99323.66;;;0.85;72.14
49585;BME280;35491;49.142;9.210;2022-12-10T20:23:38;99334.59;;;0.79;72.46
49585;BME280;35491;49.142;9.210;2022-12-10T20:24:43;99328.75;;;0.74;72.48
49585;BME280;35491;49.142;9.210;2022-12-10T20:25:48;99328.69;;;0.75;72.43
49585;BME280;35491;49.142;9.210;2022-12-10T20:26:53;99333.94;;;0.75;72.38
49585;BME280;35491;49.142;9.210;2022-12-10T20:27:55;99334.03;;;0.74;72.61
49585;BME280;35491;49.142;9.210;2022-12-10T20:29:00;99332.97;;;0.76;72.33
49585;BME280;35491;49.142;9.210;2022-12-10T20:30:05;99329.28;;;0.66;72.85
49585;BME280;35491;49.142;9.210;2022-12-10T20:31:12;99336.00;;;0.70;72.68
49585;BME280;35491;49.142;9.210;2022-12-10T20:32:16;99336.94;;;0.69;72.75
49585;BME280;35491;49.142;9.210;2022-12-10T20:33:21;99336.88;;;0.71;72.66
49585;BME280;35491;49.142;9.210;2022-12-10T20:34:25;99342.63;;;0.63;72.91
49585;BME280;35491;49.142;9.210;2022-12-10T20:35:30;99342.97;;;0.71;72.66
49585;BME280;35491;49.142;9.210;2022-12-10T20:36:32;99345.50;;;0.73;72.43
49585;BME280;35491;49.142;9.210;2022-12-10T20:37:36;99343.91;;;0.70;72.82
49585;BME280;35491;49.142;9.210;2022-12-10T20:38:37;99344.31;;;0.64;72.96
49585;BME280;35491;49.142;9.210;2022-12-10T20:39:44;99351.81;;;0.70;72.84
49585;BME280;35491;49.142;9.210;2022-12-10T20:40:48;99353.91;;;0.65;72.83
49585;BME280;35491;49.142;9.210;2022-12-10T20:41:53;99344.84;;;0.69;72.94
49585;BME280;35491;49.142;9.210;2022-12-10T20:42:57;99347.59;;;0.68;72.71
49585;BME280;35491;49.142;9.210;2022-12-10T20:43:59;99346.84;;;0.66;72.89
49585;BME280;35491;49.142;9.210;2022-12-10T20:45:04;99348.53;;;0.67;73.14
49585;BME280;35491;49.142;9.210;2022-12-10T20:46:12;99348.13;;;0.73;72.97
49585;BME280;35491;49.142;9.210;2022-12-10T20:47:17;99345.78;;;0.68;72.82
49585;BME280;35491;49.142;9.210;2022-12-10T20:48:22;99350.31;;;0.66;73.11
49585;BME280;35491;49.142;9.210;2022-12-10T20:49:27;99345.16;;;0.65;73.14
49585;BME280;35491;49.142;9.210;2022-12-10T20:50:31;99343.16;;;0.68;73.11
49585;BME280;35491;49.142;9.210;2022-12-10T20:51:36;99346.94;;;0.64;73.26
49585;BME280;35491;49.142;9.210;2022-12-10T20:52:37;99343.78;;;0.72;73.12
49585;BME280;35491;49.142;9.210;2022-12-10T20:53:42;99353.09;;;0.77;72.77
49585;BME280;35491;49.142;9.210;2022-12-10T20:54:46;99353.69;;;0.68;72.77
49585;BME280;35491;49.142;9.210;2022-12-10T20:55:50;99348.47;;;0.54;73.51
49585;BME280;35491;49.142;9.210;2022-12-10T20:56:54;99347.38;;;0.43;73.70
49585;BME280;35491;49.142;9.210;2022-12-10T20:58:00;99356.56;;;0.51;73.74
49585;BME280;35491;49.142;9.210;2022-12-10T20:59:05;99354.47;;;0.56;73.50
49585;BME280;35491;49.142;9.210;2022-12-10T21:00:11;99360.56;;;0.56;73.37
49585;BME280;35491;49.142;9.210;2022-12-10T21:01:19;99359.34;;;0.62;73.45
49585;BME280;35491;49.142;9.210;2022-12-10T21:02:23;99354.28;;;0.59;73.44
49585;BME280;35491;49.142;9.210;2022-12-10T21:03:28;99358.78;;;0.57;73.64
49585;BME280;35491;49.142;9.210;2022-12-10T21:04:30;99357.75;;;0.59;73.35
49585;BME280;35491;49.142;9.210;2022-12-10T21:05:34;99359.53;;;0.59;73.58
49585;BME280;35491;49.142;9.210;2022-12-10T21:06:36;99356.91;;;0.59;73.35
49585;BME280;35491;49.142;9.210;2022-12-10T21:07:41;99365.66;;;0.59;73.56
49585;BME280;35491;49.142;9.210;2022-12-10T21:08:46;99366.47;;;0.60;73.39
49585;BME280;35491;49.142;9.210;2022-12-10T21:09:53;99363.56;;;0.65;73.39
49585;BME280;35491;49.142;9.210;2022-12-10T21:10:57;99364.72;;;0.60;73.20
49585;BME280;35491;49.142;9.210;2022-12-10T21:11:59;99364.53;;;0.49;73.69
49585;BME280;35491;49.142;9.210;2022-12-10T21:13:04;99365.19;;;0.53;73.68
49585;BME280;35491;49.142;9.210;2022-12-10T21:14:06;99352.97;;;0.52;73.78
49585;BME280;35491;49.142;9.210;2022-12-10T21:15:10;99361.81;;;0.51;73.66
49585;BME280;35491;49.142;9.210;2022-12-10T21:16:17;99360.13;;;0.50;73.76
49585;BME280;35491;49.142;9.210;2022-12-10T21:17:19;99351.88;;;0.41;73.90
49585;BME280;35491;49.142;9.210;2022-12-10T21:18:25;99355.66;;;0.37;74.25
49585;BME280;35491;49.142;9.210;2022-12-10T21:19:28;99348.59;;;0.38;74.07
49585;BME280;35491;49.142;9.210;2022-12-10T21:20:33;99352.63;;;0.43;74.05
49585;BME280;35491;49.142;9.210;2022-12-10T21:21:35;99360.50;;;0.43;73.92
49585;BME280;35491;49.142;9.210;2022-12-10T21:22:40;99359.00;;;0.39;74.12
49585;BME280;35491;49.142;9.210;2022-12-10T21:23:42;99361.94;;;0.35;74.22
49585;BME280;35491;49.142;9.210;2022-12-10T21:24:46;99361.19;;;0.33;74.42
49585;BME280;35491;49.142;9.210;2022-12-10T21:25:53;99366.16;;;0.37;74.56
49585;BME280;35491;49.142;9.210;2022-12-10T21:26:55;99358.34;;;0.36;74.55
49585;BME280;35491;49.142;9.210;2022-12-10T21:27:59;99359.97;;;0.24;74.66
49585;BME280;35491;49.142;9.210;2022-12-10T21:29:01;99357.25;;;0.25;74.80
49585;BME280;35491;49.142;9.210;2022-12-10T21:30:07;99357.53;;;0.21;75.03
49585;BME280;35491;49.142;9.210;2022-12-10T21:31:15;99364.31;;;0.25;74.98
49585;BME280;35491;49.142;9.210;2022-12-10T21:32:20;99363.72;;;0.20;75.13
49585;BME280;35491;49.142;9.210;2022-12-10T21:33:23;99364.75;;;0.17;75.17
49585;BME280;35491;49.142;9.210;2022-12-10T21:34:27;99362.91;;;0.05;75.53
49585;BME280;35491;49.142;9.210;2022-12-10T21:35:33;99360.00;;;0.09;75.44
49585;BME280;35491;49.142;9.210;2022-12-10T21:36:34;99365.06;;;0.27;75.04
49585;BME280;35491;49.142;9.210;2022-12-10T21:37:39;99358.66;;;0.31;74.67
49585;BME280;35491;49.142;9.210;2022-12-10T21:38:43;99362.00;;;0.47;74.10
49585;BME280;35491;49.142;9.210;2022-12-10T21:39:45;99364.56;;;0.35;74.12
49585;BME280;35491;49.142;9.210;2022-12-10T21:40:50;99356.06;;;0.58;73.90
49585;BME280;35491;49.142;9.210;2022-12-10T21:41:55;99354.63;;;0.67;73.34
49585;BME280;35491;49.142;9.210;2022-12-10T21:43:13;99354.22;;;0.46;73.66
49585;BME280;35491;49.142;9.210;2022-12-10T21:44:21;99354.09;;;0.47;73.71
49585;BME280;35491;49.142;9.210;2022-12-10T21:45:25;99360.34;;;0.46;73.91
49585;BME280;35491;49.142;9.210;2022-12-10T21:46:30;99354.66;;;0.53;73.53
49585;BME280;35491;49.142;9.210;2022-12-10T21:47:34;99360.91;;;0.37;73.86
49585;BME280;35491;49.142;9.210;2022-12-10T21:48:36;99351.50;;;0.33;74.11
49585;BME280;35491;49.142;9.210;2022-12-10T21:49:40;99353.03;;;0.37;73.84
49585;BME280;35491;49.142;9.210;2022-12-10T21:50:42;99354.06;;;0.20;74.42
49585;BME280;35491;49.142;9.210;2022-12-10T21:51:47;99363.53;;;0.23;74.19
49585;BME280;35491;49.142;9.210;2022-12-10T21:52:52;99356.22;;;0.28;74.35
49585;BME280;35491;49.142;9.210;2022-12-10T21:53:56;99356.94;;;0.44;73.96
49585;BME280;35491;49.142;9.210;2022-12-10T21:55:01;99362.22;;;0.44;73.51
49585;BME280;35491;49.142;9.210;2022-12-10T21:56:05;99352.44;;;0.32;73.98
49585;BME280;35491;49.142;9.210;2022-12-10T21:57:12;99353.69;;;0.26;74.17
49585;BME280;35491;49.142;9.210;2022-12-10T21:58:13;99343.81;;;0.30;74.03
49585;BME280;35491;49.142;9.210;2022-12-10T21:59:17;99357.34;;;0.24;74.15
49585;BME280;35491;49.142;9.210;2022-12-10T22:00:22;99355.28;;;0.14;74.37
49585;BME280;35491;49.142;9.210;2022-12-10T22:01:23;99350.59;;;0.05;74.77
49585;BME280;35491;49.142;9.210;2022-12-10T22:02:27;99358.59;;;0.04;74.84
49585;BME280;35491;49.142;9.210;2022-12-10T22:03:29;99357.72;;;0.03;74.90
49585;BME280;35491;49.142;9.210;2022-12-10T22:04:34;99361.31;;;0.02;75.10
49585;BME280;35491;49.142;9.210;2022-12-10T22:05:40;99358.13;;;-0.03;75.16
49585;BME280;35491;49.142;9.210;2022-12-10T22:06:45;99357.09;;;0.14;74.73
49585;BME280;35491;49.142;9.210;2022-12-10T22:07:52;99347.31;;;0.16;74.14